Forside
METAR-TAF:

METAR-TAF

Lufthavne :

Kokshetau, Kasakhstan

Breddekreds: 53-19-48N, længdekreds: 069-35-48E, højde: 270 m

Aktuelle vejr

Denne rapport blev lavet for 51 minutter siden, kl. 12:00 UTC
Vind 12 kt fra sydsydøst
Temperatur 18°C
Fugtighed 30%
Tryk 1009 hPa
Sigt 10 km eller mere
ingen skyer under 1500m og ingen cumulonimbus

METAR: UACK 191200Z 15006MPS CAVOK 18/00 Q1009 R20/010070 NOSIG RMK QFE733/0978

Tid: 18:51 (12:51 UTC)

Vejrudsigter

Denne rapport blev lavet for 1 time og 51 minutter siden, kl. 11:00 UTC
Foreløbig gælder fra 19 på 12 UTC til 19 på 21 UTC
Vind 16 kt fra sydsydøst med vindstød på up til 25 kt
Sigt 10 km eller mere
Spredte skyer i en højde af 4000 ft
Brudte skyer i en højde af 10000 ft
Midlertidig
fra 19 på 12 UTC til 19 på 19 UTC
Vind 21 kt fra syd med vindstød på up til 31 kt
Brudte skyer i en højde af 2500 ft, Cumulonimbus.

TAF: UACK 191100Z 1912/1921 15008G13MPS 9999 SCT040 BKN100 TEMPO 1912/1919 19011G16MPS BKN025CB

Vejrobservationer og prognoser fra mere end 4000 lufthavne (METAR og TAF).

De gule og røde prikker repræsenterer de meteorologiske stationer.

Flyt musen over at se navnet på stationen.

Så klik over at se vejr observationer og prognoser.

At skifte det kort: Klik på de grønne knapper med et sort kors for at zoome ind; på den grønne knap med en bindestreg for at zoome ud; eller på de grønne pile for tilstødende kort.


METAR-TAF: